Port Isabel, TX

10:02 AM CST on February 23, 2018 (GMT -0600)
Port Isabel-Cameron County | | Change Station

Elev 16 ft 26.17 °N, 97.35 °W | Updated 9 minutes ago

Overcast
Overcast
77 °F
Feels Like 77 °F
N
21
Wind Variable Wind from SSE
Gusts 26 mph

Today
High -- | Low -- °F
--% Chance of Precip.
Yesterday
High -- | Low -- °F
Precip. -- in
Pressure 30.10 in
Visibility 7.0 miles
Clouds Mostly Cloudy 1300 ft
Overcast 1900 ft
Dew Point 68 °F
Humidity 74%
Rainfall 0.00 in
Snow Depth Not available.
6:58 AM 6:27 PM
First Quarter, 54% visible
METAR KPIL 231553Z AUTO 16018G23KT 7SM BKN013 OVC019 25/20 A3010 RMK AO2 SLP192 T02500200
Pressure 30.10 in
Visibility 7.0 miles
Clouds Mostly Cloudy 1300 ft
Overcast 1900 ft
Dew Point 68 °F
Humidity 74%
Rainfall 0.00 in
Snow Depth Not available.
6:58 AM 6:27 PM
First Quarter, 54% visible
METAR KPIL 231553Z AUTO 16018G23KT 7SM BKN013 OVC019 25/20 A3010 RMK AO2 SLP192 T02500200

Get Severe Weather Alerts

Thanks for signing up!

Be on the lookout for a verification email in your inbox.

You'll start receiving the daily forecast at 6 AM.

×

10-Day Weather Forecast

Almanac

Astronomy

Feb. 23, 2018 Rise Set
Actual Time
Civil Twilight
Nautical Twilight
Astronomical Twilight
Moon
Length of Visible Light
Length of Day
Tomorrow will be .
, % of the Moon is Illuminated

Today's Extremes

State Highs State Lows

Community

WunderPhotos

Category 6

Welcome to Category 6. This is the collective home for Weather Underground's featured writeups by Dr. Jeff Masters (right), Bob Henson (left), Chris Burt, and other regular contributors.

Nearby

Air Quality

  Air Quality AQ Index Pollutant
Not available.

Snow Depth

Station Depth Elevation

Earthquake Activity

City Distance Mag. Time & Date
Minimum magnitude displayed is 2.5.

Coastal Water Temperatures

Place Temperature

Stations

Nearby Weather Stations

Station Location Temp. Windchill Dew Point Humidity Wind Precip. Elev Updated Type
                   

Watches & Warnings

There are currently no watches in effect.